Time;durP1;ratioP1;P1;durP2;ratioP2;P2;SDS_P1;SDS_P2;PMS_P1;PMS_P2;Temp;Humidity;BMP_temperature;BMP_pressure;BME280_temperature;BME280_humidity;BME280_pressure;Samples;Min_cycle;Max_cycle;Signal;HPM_P1;HPM_P2
2022/10/23 00:02:26;;;;;;;25.30;15.57;;;12.70;99.90;;;;;;4969364;28;40372;-81
2022/10/23 00:05:12;;;;;;;25.95;15.15;;;12.80;99.90;;;;;;4959535;28;40007;-81
2022/10/23 00:07:41;;;;;;;19.63;10.98;;;12.80;99.90;;;;;;4978127;28;48190;-81
2022/10/23 00:10:12;;;;;;;29.63;16.98;;;12.90;99.90;;;;;;4966174;28;40143;-81
2022/10/23 00:12:52;;;;;;;30.30;16.85;;;12.90;99.90;;;;;;4971013;28;48062;-81
2022/10/23 00:15:22;;;;;;;20.58;11.80;;;13.00;99.90;;;;;;4963889;28;41313;-82
2022/10/23 00:18:13;;;;;;;26.63;16.35;;;13.00;99.90;;;;;;4959604;28;39123;-81
2022/10/23 00:21:04;;;;;;;28.92;17.65;;;13.10;99.90;;;;;;4943884;28;39297;-81
2022/10/23 00:24:00;;;;;;;27.58;18.10;;;13.10;99.90;;;;;;4901028;28;47374;-82
2022/10/23 00:26:30;;;;;;;29.52;16.63;;;13.10;99.90;;;;;;4929650;28;38910;-81
2022/10/23 00:29:01;;;;;;;30.17;19.33;;;13.20;99.90;;;;;;4993703;28;37996;-82
2022/10/23 00:32:16;;;;;;;21.85;15.63;;;13.10;99.90;;;;;;4969457;28;39247;-83
2022/10/23 00:34:47;;;;;;;26.65;17.15;;;13.10;99.90;;;;;;4943176;28;48631;-81
2022/10/23 00:37:57;;;;;;;22.58;15.80;;;13.10;99.90;;;;;;4962769;28;40567;-81
2022/10/23 00:41:15;;;;;;;30.58;17.83;;;13.10;99.90;;;;;;4973060;28;50152;-81
2022/10/23 00:51:56;;;;;;;30.25;18.13;;;12.90;99.90;;;;;;5494766;23;20045;-79
2022/10/23 01:03:32;;;;;;;23.48;15.88;;;12.90;99.90;;;;;;5100856;23;20904;-77
2022/10/23 01:06:22;;;;;;;21.05;12.10;;;12.90;99.90;;;;;;4984392;28;38687;-77
2022/10/23 01:09:03;;;;;;;22.33;13.80;;;12.90;99.90;;;;;;4970840;28;47074;-79
2022/10/23 01:12:08;;;;;;;28.25;15.43;;;12.80;99.90;;;;;;4974772;28;47187;-77
2022/10/23 01:14:50;;;;;;;34.17;18.17;;;12.80;99.90;;;;;;4966259;28;47104;-76
2022/10/23 01:17:28;;;;;;;21.90;13.55;;;12.80;99.90;;;;;;4984370;28;39763;-76
2022/10/23 01:20:27;;;;;;;24.42;13.93;;;12.80;99.90;;;;;;4977406;28;38225;-76
2022/10/23 01:23:09;;;;;;;33.47;18.98;;;12.70;99.90;;;;;;4966023;28;47134;-77
2022/10/23 01:25:56;;;;;;;28.58;17.63;;;12.70;99.90;;;;;;4957761;28;47216;-77
2022/10/23 01:28:46;;;;;;;23.52;16.27;;;12.70;99.90;;;;;;4958953;28;39004;-77
2022/10/23 01:31:17;;;;;;;28.63;18.08;;;12.70;99.90;;;;;;4966193;28;38245;-76
2022/10/23 01:33:48;;;;;;;29.73;16.63;;;12.80;99.90;;;;;;4965820;28;36806;-76
2022/10/23 01:36:17;;;;;;;33.17;17.95;;;12.80;99.90;;;;;;4968175;28;37351;-76
2022/10/23 01:38:48;;;;;;;28.55;15.30;;;12.80;99.90;;;;;;4969293;28;38426;-77
2022/10/23 01:41:41;;;;;;;28.88;15.23;;;12.80;99.90;;;;;;4984312;28;39167;-78
2022/10/23 01:44:20;;;;;;;24.35;17.63;;;12.80;99.90;;;;;;4961168;28;37251;-77
2022/10/23 01:46:48;;;;;;;32.05;18.83;;;12.80;99.90;;;;;;4986855;28;37521;-77
2022/10/23 01:49:16;;;;;;;30.00;14.80;;;12.80;99.90;;;;;;4959586;28;37576;-77
2022/10/23 01:51:50;;;;;;;27.42;16.63;;;12.80;99.90;;;;;;4984348;28;38525;-77
2022/10/23 01:54:21;;;;;;;30.70;20.13;;;12.80;99.90;;;;;;4957716;28;39176;-77
2022/10/23 01:56:50;;;;;;;28.73;16.50;;;12.80;99.90;;;;;;4983358;28;37484;-77
2022/10/23 01:59:21;;;;;;;27.90;17.50;;;12.80;99.90;;;;;;4980784;28;38464;-77
2022/10/23 02:01:51;;;;;;;29.73;17.88;;;12.80;99.90;;;;;;4963235;28;39229;-77
2022/10/23 02:04:25;;;;;;;22.08;15.77;;;12.80;99.90;;;;;;4957805;28;38412;-77
2022/10/23 02:06:52;;;;;;;29.50;18.88;;;12.90;99.90;;;;;;4962941;28;37353;-77
2022/10/23 02:09:20;;;;;;;27.88;17.77;;;12.80;99.90;;;;;;4956649;28;39059;-77
2022/10/23 02:12:12;;;;;;;37.00;22.58;;;12.80;99.90;;;;;;4980763;28;38836;-77
2022/10/23 02:14:59;;;;;;;26.15;17.02;;;12.70;99.90;;;;;;4958028;28;46929;-77
2022/10/23 02:17:37;;;;;;;36.72;20.40;;;12.60;99.90;;;;;;4959175;28;37743;-77
2022/10/23 02:20:35;;;;;;;26.83;17.10;;;12.60;99.90;;;;;;4985491;28;38471;-77
2022/10/23 02:23:23;;;;;;;32.42;19.20;;;12.60;99.90;;;;;;4943719;28;47423;-78
2022/10/23 02:25:58;;;;;;;26.42;17.00;;;12.50;99.90;;;;;;4965181;28;47198;-78
2022/10/23 02:28:30;;;;;;;25.25;18.17;;;12.50;99.90;;;;;;4961260;28;36669;-77
2022/10/23 02:30:58;;;;;;;23.38;15.38;;;12.50;99.90;;;;;;4969026;28;37702;-77
2022/10/23 02:33:26;;;;;;;26.75;17.27;;;12.40;99.90;;;;;;4981178;28;38703;-77
2022/10/23 02:35:53;;;;;;;31.33;20.13;;;12.40;99.90;;;;;;4965388;28;37839;-77
2022/10/23 02:38:32;;;;;;;34.10;19.52;;;12.40;99.90;;;;;;4970852;28;36113;-78
2022/10/23 02:41:09;;;;;;;29.95;18.85;;;12.40;99.90;;;;;;4962691;28;37602;-78
2022/10/23 02:44:05;;;;;;;22.63;16.02;;;12.50;99.90;;;;;;4981777;28;49487;-77
2022/10/23 02:46:55;;;;;;;23.75;16.65;;;12.50;99.90;;;;;;4969068;28;47268;-77
2022/10/23 02:49:43;;;;;;;32.78;19.90;;;12.50;99.90;;;;;;4958789;28;38317;-77
2022/10/23 02:52:25;;;;;;;22.75;16.58;;;12.50;99.90;;;;;;4964501;28;37901;-77
2022/10/23 02:55:22;;;;;;;38.30;20.02;;;12.50;99.90;;;;;;4972327;28;37479;-77
2022/10/23 02:58:07;;;;;;;21.88;15.68;;;12.60;99.90;;;;;;4975114;28;46993;-77
2022/10/23 03:00:36;;;;;;;35.28;17.77;;;12.70;99.90;;;;;;4981126;28;48715;-77
2022/10/23 03:03:12;;;;;;;34.22;17.35;;;12.70;99.90;;;;;;4965745;28;36959;-77
2022/10/23 03:05:40;;;;;;;30.50;16.23;;;12.80;99.90;;;;;;4965404;28;46956;-78
2022/10/23 03:08:10;;;;;;;29.23;16.13;;;12.80;99.90;;;;;;4965261;28;37224;-78
2022/10/23 03:10:36;;;;;;;28.80;15.52;;;12.90;99.90;;;;;;4976685;28;36117;-77
2022/10/23 03:13:02;;;;;;;27.70;15.00;;;12.90;99.90;;;;;;4965604;28;37757;-77
2022/10/23 03:15:29;;;;;;;26.35;14.13;;;12.90;99.90;;;;;;4990365;28;49068;-77
2022/10/23 03:17:55;;;;;;;30.00;16.08;;;13.00;99.90;;;;;;4995040;28;38862;-77
2022/10/23 03:20:21;;;;;;;28.48;14.32;;;13.00;99.90;;;;;;4990276;28;37361;-78
2022/10/23 03:22:47;;;;;;;21.00;11.10;;;13.00;99.90;;;;;;4972830;28;39190;-78
2022/10/23 03:25:13;;;;;;;23.58;13.27;;;13.00;99.90;;;;;;4967390;28;37533;-77
2022/10/23 03:27:39;;;;;;;19.77;12.93;;;13.00;99.90;;;;;;4963298;28;37538;-77
2022/10/23 03:30:06;;;;;;;24.13;14.00;;;13.10;99.90;;;;;;4983053;28;37919;-77
2022/10/23 03:32:32;;;;;;;22.55;11.10;;;13.10;99.90;;;;;;4960797;28;37848;-76
2022/10/23 03:34:58;;;;;;;24.13;12.60;;;13.00;99.90;;;;;;4982359;28;39789;-77
2022/10/23 03:37:24;;;;;;;20.55;10.85;;;13.00;99.90;;;;;;4976082;28;38604;-76
2022/10/23 03:39:51;;;;;;;21.90;11.90;;;13.00;99.90;;;;;;4974635;28;37676;-77
2022/10/23 03:42:17;;;;;;;16.55;8.95;;;13.10;99.90;;;;;;4978773;28;39258;-77
2022/10/23 03:44:43;;;;;;;17.90;8.65;;;13.00;99.90;;;;;;4959809;28;38306;-77
2022/10/23 03:47:11;;;;;;;21.38;9.27;;;13.00;99.90;;;;;;4964212;28;37656;-77
2022/10/23 03:49:38;;;;;;;23.67;12.35;;;13.00;99.90;;;;;;4959007;28;36893;-76
2022/10/23 03:52:05;;;;;;;20.65;9.25;;;13.10;99.90;;;;;;4962741;28;39490;-77
2022/10/23 03:54:32;;;;;;;14.85;7.85;;;13.10;99.90;;;;;;4980214;28;38888;-77
2022/10/23 03:56:58;;;;;;;18.70;10.07;;;13.10;99.90;;;;;;4959116;28;37657;-77
2022/10/23 03:59:25;;;;;;;17.13;9.13;;;13.10;99.90;;;;;;4973380;28;38240;-77
2022/10/23 04:01:51;;;;;;;21.35;10.05;;;13.10;99.90;;;;;;4986240;28;39861;-77
2022/10/23 04:04:17;;;;;;;17.13;9.63;;;13.20;99.90;;;;;;4969415;28;37684;-77
2022/10/23 04:06:43;;;;;;;20.08;9.23;;;13.20;99.90;;;;;;4977845;28;38121;-77
2022/10/23 04:09:10;;;;;;;21.67;8.18;;;13.20;99.90;;;;;;4955149;28;36773;-77
2022/10/23 04:11:36;;;;;;;18.23;9.52;;;13.20;99.90;;;;;;4962524;28;37659;-77
2022/10/23 04:14:02;;;;;;;19.88;9.00;;;13.20;99.90;;;;;;4961063;28;37733;-77
2022/10/23 04:16:28;;;;;;;14.38;7.65;;;13.20;99.90;;;;;;4977842;28;49063;-77
2022/10/23 04:18:54;;;;;;;19.90;8.07;;;13.20;99.90;;;;;;4956953;28;36130;-77
2022/10/23 04:21:20;;;;;;;19.00;7.90;;;13.20;99.90;;;;;;4957878;28;38866;-77
2022/10/23 04:23:46;;;;;;;16.17;8.23;;;13.20;99.90;;;;;;4976361;28;39911;-77
2022/10/23 04:26:12;;;;;;;10.75;6.15;;;13.20;99.90;;;;;;4966085;28;37591;-78
2022/10/23 04:28:39;;;;;;;21.20;8.45;;;13.20;99.90;;;;;;4966134;28;35700;-77
2022/10/23 04:31:05;;;;;;;18.65;7.65;;;13.20;99.90;;;;;;4974190;28;39638;-78
2022/10/23 04:33:31;;;;;;;9.93;6.10;;;13.30;99.90;;;;;;4962064;28;38283;-77
2022/10/23 04:35:57;;;;;;;20.85;7.50;;;13.30;99.90;;;;;;4968304;28;37728;-77
2022/10/23 04:38:23;;;;;;;15.05;7.53;;;13.30;99.90;;;;;;4979370;28;37650;-77
2022/10/23 04:40:49;;;;;;;21.17;7.68;;;13.30;99.90;;;;;;4983463;28;38715;-77
2022/10/23 04:43:15;;;;;;;15.43;6.47;;;13.30;99.90;;;;;;4960247;28;38051;-77
2022/10/23 04:45:41;;;;;;;15.95;7.03;;;13.30;99.90;;;;;;4977754;28;38862;-77
2022/10/23 04:48:07;;;;;;;15.10;8.20;;;13.30;99.90;;;;;;4965087;28;35883;-77
2022/10/23 04:50:33;;;;;;;13.32;6.55;;;13.30;99.90;;;;;;4968628;28;38816;-78
2022/10/23 04:52:59;;;;;;;17.85;7.88;;;13.30;99.90;;;;;;4968394;28;38437;-77
2022/10/23 04:55:25;;;;;;;11.00;7.07;;;13.30;99.90;;;;;;4992829;28;37736;-77
2022/10/23 04:57:52;;;;;;;13.77;7.15;;;13.30;99.90;;;;;;4961621;28;36153;-77
2022/10/23 05:00:18;;;;;;;19.08;7.75;;;13.30;99.90;;;;;;4958657;28;37864;-77
2022/10/23 05:02:44;;;;;;;21.27;7.30;;;13.30;99.90;;;;;;4956970;28;39206;-78
2022/10/23 05:05:10;;;;;;;12.77;7.40;;;13.30;99.90;;;;;;4964478;28;37895;-77
2022/10/23 05:07:38;;;;;;;14.40;7.57;;;13.40;99.90;;;;;;4979489;28;37418;-77
2022/10/23 05:10:05;;;;;;;15.15;7.60;;;13.30;99.90;;;;;;4977389;28;39828;-77
2022/10/23 05:12:31;;;;;;;17.02;7.28;;;13.30;99.90;;;;;;4978024;28;47528;-77
2022/10/23 05:14:57;;;;;;;15.05;7.05;;;13.30;99.90;;;;;;4984454;28;37855;-77
2022/10/23 05:17:28;;;;;;;15.32;8.13;;;13.30;99.90;;;;;;4973149;28;38080;-77
2022/10/23 05:19:57;;;;;;;13.52;6.80;;;13.40;99.90;;;;;;4983206;28;38812;-77
2022/10/23 05:22:28;;;;;;;18.58;7.72;;;13.30;99.90;;;;;;4963423;28;39241;-77
2022/10/23 05:24:54;;;;;;;14.43;7.10;;;13.30;99.90;;;;;;4964119;28;37524;-77
2022/10/23 05:27:20;;;;;;;22.58;7.63;;;13.30;99.90;;;;;;4970087;28;38066;-77
2022/10/23 05:29:46;;;;;;;16.17;7.82;;;13.30;99.90;;;;;;4954150;28;38536;-77
2022/10/23 05:32:14;;;;;;;13.82;7.22;;;13.30;99.90;;;;;;4972583;28;38915;-77
2022/10/23 05:34:41;;;;;;;17.08;8.07;;;13.30;99.90;;;;;;4957041;28;37959;-77
2022/10/23 05:37:09;;;;;;;18.15;8.23;;;13.30;99.90;;;;;;4962550;28;34440;-76
2022/10/23 05:39:35;;;;;;;18.30;7.68;;;13.30;99.90;;;;;;4974805;28;38534;-78
2022/10/23 05:42:01;;;;;;;18.60;8.02;;;13.30;99.90;;;;;;4952131;28;37693;-77
2022/10/23 05:44:27;;;;;;;15.43;8.25;;;13.30;99.90;;;;;;4972737;28;48539;-77
2022/10/23 05:46:54;;;;;;;19.20;8.75;;;13.20;99.90;;;;;;4968698;28;37946;-78
2022/10/23 05:49:22;;;;;;;13.82;8.05;;;13.20;99.90;;;;;;4951342;28;39207;-78
2022/10/23 05:51:48;;;;;;;12.57;7.20;;;13.30;99.90;;;;;;4969347;28;38814;-77
2022/10/23 05:54:14;;;;;;;10.82;7.45;;;13.30;99.90;;;;;;4949205;28;37304;-77
2022/10/23 05:56:40;;;;;;;14.65;7.35;;;13.20;99.90;;;;;;4958039;28;36266;-77
2022/10/23 05:59:07;;;;;;;19.60;7.75;;;13.30;99.90;;;;;;4974852;28;39349;-78
2022/10/23 06:01:33;;;;;;;13.88;7.47;;;13.20;99.90;;;;;;4956472;28;39609;-77
2022/10/23 06:04:00;;;;;;;17.70;7.38;;;13.20;99.90;;;;;;4969741;28;38842;-77
2022/10/23 06:06:26;;;;;;;14.73;7.35;;;13.20;99.90;;;;;;4976366;28;37829;-78
2022/10/23 06:08:53;;;;;;;17.27;8.70;;;13.20;99.90;;;;;;4971292;28;38390;-78
2022/10/23 06:11:19;;;;;;;17.50;7.95;;;13.20;99.90;;;;;;4957893;28;39421;-77
2022/10/23 06:13:47;;;;;;;13.20;6.70;;;13.20;99.90;;;;;;4978771;28;38541;-78
2022/10/23 06:16:26;;;;;;;14.15;7.65;;;13.20;99.90;;;;;;4961957;28;36211;-76
2022/10/23 06:18:52;;;;;;;20.25;7.38;;;13.20;99.90;;;;;;4980925;28;38551;-76
2022/10/23 06:21:19;;;;;;;20.33;8.80;;;13.20;99.90;;;;;;4974879;28;38969;-76
2022/10/23 06:23:46;;;;;;;13.57;7.90;;;13.20;99.90;;;;;;4960212;28;38143;-78
2022/10/23 06:26:22;;;;;;;13.90;8.00;;;13.20;99.90;;;;;;4976310;28;37969;-80
2022/10/23 06:28:49;;;;;;;17.38;6.90;;;13.20;99.90;;;;;;4968399;28;38909;-81
2022/10/23 06:31:18;;;;;;;21.83;8.23;;;13.20;99.90;;;;;;4953753;28;37526;-76
2022/10/23 06:33:44;;;;;;;12.63;7.00;;;13.20;99.90;;;;;;4958841;28;39390;-80
2022/10/23 06:36:10;;;;;;;21.98;8.95;;;13.30;99.90;;;;;;4966090;28;37429;-78
2022/10/23 06:38:39;;;;;;;14.57;8.63;;;13.20;99.90;;;;;;4958951;28;37990;-79
2022/10/23 06:41:14;;;;;;;13.73;7.50;;;13.20;99.90;;;;;;4977832;28;40315;-81
2022/10/23 06:43:40;;;;;;;14.07;7.07;;;13.20;99.90;;;;;;4959092;28;37391;-79
2022/10/23 06:46:06;;;;;;;12.98;6.45;;;13.20;99.90;;;;;;4960773;28;36251;-79
2022/10/23 06:48:32;;;;;;;12.75;7.55;;;13.20;99.90;;;;;;4955952;28;37631;-79
2022/10/23 06:51:04;;;;;;;17.60;7.78;;;13.20;99.90;;;;;;4974538;28;38629;-79
2022/10/23 06:53:30;;;;;;;17.03;8.23;;;13.20;99.90;;;;;;4961032;28;46194;-79
2022/10/23 06:56:00;;;;;;;12.45;8.13;;;13.20;99.90;;;;;;4956507;28;35744;-79
2022/10/23 06:58:26;;;;;;;15.80;7.85;;;13.30;99.90;;;;;;4972057;28;39344;-80
2022/10/23 07:00:52;;;;;;;15.88;8.07;;;13.30;99.90;;;;;;4957267;28;38377;-79
2022/10/23 07:03:21;;;;;;;10.77;6.85;;;13.40;99.90;;;;;;4976000;28;38435;-79
2022/10/23 07:05:47;;;;;;;14.52;7.07;;;13.40;99.90;;;;;;4983813;28;37661;-79
2022/10/23 07:08:14;;;;;;;12.77;7.82;;;13.40;99.90;;;;;;4959393;28;36718;-79
2022/10/23 07:10:41;;;;;;;14.98;6.70;;;13.50;99.90;;;;;;4971959;28;37414;-78
2022/10/23 07:13:11;;;;;;;14.43;6.65;;;13.50;99.90;;;;;;4961867;28;38855;-78
2022/10/23 07:15:37;;;;;;;21.20;8.55;;;13.50;99.90;;;;;;4979884;28;37776;-78
2022/10/23 07:18:04;;;;;;;13.73;7.95;;;13.60;99.90;;;;;;4979092;28;38390;-78
2022/10/23 07:20:31;;;;;;;12.68;7.13;;;13.60;99.90;;;;;;4984888;28;40064;-78
2022/10/23 07:22:57;;;;;;;10.75;7.25;;;13.60;99.90;;;;;;4977425;28;37818;-78
2022/10/23 07:25:25;;;;;;;17.88;8.55;;;13.60;99.90;;;;;;4960354;28;36077;-80
2022/10/23 07:27:54;;;;;;;15.02;7.88;;;13.60;99.90;;;;;;4963320;28;39486;-79
2022/10/23 07:30:20;;;;;;;16.50;8.45;;;13.70;99.90;;;;;;4975860;28;40062;-78
2022/10/23 07:32:46;;;;;;;12.48;7.75;;;13.80;99.90;;;;;;4964453;28;37676;-80
2022/10/23 07:35:12;;;;;;;18.35;7.90;;;13.80;99.90;;;;;;4983660;28;37973;-79
2022/10/23 07:37:38;;;;;;;11.35;6.28;;;13.80;99.90;;;;;;4977337;28;39620;-77
2022/10/23 07:40:05;;;;;;;13.70;7.82;;;13.90;99.90;;;;;;4986853;28;38690;-79
2022/10/23 07:42:32;;;;;;;12.93;7.47;;;13.90;99.90;;;;;;4975720;28;38545;-79
2022/10/23 07:44:58;;;;;;;11.43;7.47;;;14.00;99.90;;;;;;4975057;28;38067;-79
2022/10/23 07:47:24;;;;;;;15.05;8.07;;;14.10;99.90;;;;;;4972940;28;38481;-76
2022/10/23 07:49:50;;;;;;;16.42;7.43;;;14.10;99.90;;;;;;4956384;28;38680;-77
2022/10/23 07:52:16;;;;;;;13.38;6.93;;;14.20;99.90;;;;;;4961857;28;37189;-80
2022/10/23 07:54:42;;;;;;;15.98;7.00;;;14.20;99.90;;;;;;4964568;28;35848;-77
2022/10/23 07:57:10;;;;;;;11.45;7.63;;;14.20;99.90;;;;;;4962846;28;37813;-78
2022/10/23 07:59:37;;;;;;;12.68;7.65;;;14.20;99.90;;;;;;4963103;28;39405;-80
2022/10/23 08:02:03;;;;;;;16.52;7.45;;;14.30;99.90;;;;;;4963869;28;37222;-78
2022/10/23 08:04:29;;;;;;;14.20;7.22;;;14.30;99.90;;;;;;4966400;28;37299;-77
2022/10/23 08:06:55;;;;;;;13.45;6.80;;;14.40;99.90;;;;;;4956850;28;38067;-77
2022/10/23 08:09:23;;;;;;;11.30;6.93;;;14.30;99.90;;;;;;4985462;28;39056;-79
2022/10/23 08:11:49;;;;;;;16.45;6.68;;;14.40;99.90;;;;;;4964168;28;38654;-76
2022/10/23 08:14:15;;;;;;;11.52;6.72;;;14.40;99.90;;;;;;4977034;28;37028;-77
2022/10/23 08:16:41;;;;;;;14.13;6.70;;;14.40;99.90;;;;;;4966185;28;37591;-76
2022/10/23 08:19:07;;;;;;;8.23;5.68;;;14.50;99.90;;;;;;4980457;28;38593;-76
2022/10/23 08:21:33;;;;;;;15.40;7.57;;;14.50;99.90;;;;;;4961707;28;38351;-77
2022/10/23 08:24:00;;;;;;;10.48;6.38;;;14.50;99.90;;;;;;4974096;28;37140;-77
2022/10/23 08:26:29;;;;;;;12.95;7.78;;;14.60;99.90;;;;;;4966632;28;40480;-78
2022/10/23 08:28:58;;;;;;;13.18;7.00;;;14.60;99.90;;;;;;4957886;28;38901;-77
2022/10/23 08:31:25;;;;;;;10.40;6.63;;;14.70;99.90;;;;;;4986414;28;39495;-78
2022/10/23 08:33:51;;;;;;;11.88;5.85;;;14.70;99.90;;;;;;4957288;28;37654;-77
2022/10/23 08:36:22;;;;;;;10.50;7.20;;;14.70;99.90;;;;;;4968313;28;38626;-77
2022/10/23 08:38:52;;;;;;;8.63;5.55;;;14.80;99.90;;;;;;4968874;28;38878;-77
2022/10/23 08:41:41;;;;;;;9.82;5.95;;;14.80;99.90;;;;;;4984459;28;38555;-78
2022/10/23 08:44:26;;;;;;;9.15;6.30;;;14.90;99.90;;;;;;4971466;28;36492;-78
2022/10/23 08:47:13;;;;;;;12.55;6.78;;;14.90;99.90;;;;;;4958945;28;37669;-77
2022/10/23 08:49:55;;;;;;;11.13;6.25;;;14.90;99.90;;;;;;4977533;28;48278;-77
2022/10/23 08:52:28;;;;;;;10.10;6.05;;;14.90;99.90;;;;;;4984025;28;38295;-78
2022/10/23 08:55:28;;;;;;;8.50;5.90;;;14.90;99.90;;;;;;4961057;28;36806;-77
2022/10/23 08:58:02;;;;;;;13.07;6.10;;;14.90;99.90;;;;;;4973623;28;49017;-77
2022/10/23 09:00:29;;;;;;;11.07;5.85;;;14.90;99.90;;;;;;4953870;28;47037;-77
2022/10/23 09:02:55;;;;;;;12.73;6.25;;;15.00;99.90;;;;;;4960570;28;38785;-77
2022/10/23 09:05:26;;;;;;;15.10;6.85;;;15.00;99.90;;;;;;4977734;28;37317;-78
2022/10/23 09:08:39;;;;;;;10.23;6.18;;;15.00;99.90;;;;;;4956044;28;37946;-78
2022/10/23 09:11:43;;;;;;;9.88;5.72;;;15.00;99.90;;;;;;4977694;28;47182;-79
2022/10/23 09:14:28;;;;;;;10.57;5.40;;;14.90;99.90;;;;;;4983562;28;38069;-79
2022/10/23 09:17:04;;;;;;;9.50;7.25;;;14.90;99.90;;;;;;4981978;28;38492;-79
2022/10/23 09:19:31;;;;;;;11.02;6.97;;;14.90;99.90;;;;;;4980736;28;48301;-78
2022/10/23 09:21:57;;;;;;;12.50;6.88;;;14.90;99.90;;;;;;4986889;28;38945;-78
2022/10/23 09:24:25;;;;;;;13.35;7.68;;;14.80;99.90;;;;;;4977075;28;39246;-79
2022/10/23 09:26:53;;;;;;;12.90;7.13;;;14.80;99.90;;;;;;4977702;28;36204;-78
2022/10/23 09:29:22;;;;;;;13.15;7.32;;;14.80;99.90;;;;;;4959571;28;38855;-78
2022/10/23 09:31:51;;;;;;;12.73;7.13;;;14.80;99.90;;;;;;4966429;28;38140;-78
2022/10/23 09:34:21;;;;;;;10.73;6.90;;;14.80;99.90;;;;;;4976150;28;38254;-76
2022/10/23 09:36:55;;;;;;;19.27;6.78;;;14.80;99.90;;;;;;4984591;28;36541;-79
2022/10/23 09:39:28;;;;;;;13.63;7.13;;;14.80;99.90;;;;;;4963242;28;37358;-78
2022/10/23 09:41:55;;;;;;;13.05;6.60;;;14.80;99.90;;;;;;4960645;28;38526;-77
2022/10/23 09:44:24;;;;;;;10.73;7.00;;;14.80;99.90;;;;;;4967273;28;38929;-79
2022/10/23 09:46:53;;;;;;;11.25;6.88;;;14.90;99.90;;;;;;4982193;28;38222;-77
2022/10/23 09:49:24;;;;;;;10.45;7.20;;;14.90;99.90;;;;;;4984550;28;40725;-77
2022/10/23 09:52:07;;;;;;;9.60;6.13;;;15.00;99.90;;;;;;4987518;28;38959;-77
2022/10/23 09:54:43;;;;;;;17.08;6.50;;;15.00;99.90;;;;;;4965677;28;46920;-79
2022/10/23 09:57:29;;;;;;;12.48;6.38;;;15.00;99.90;;;;;;4963434;28;37496;-77
2022/10/23 10:00:03;;;;;;;12.55;6.53;;;15.10;99.90;;;;;;4966881;28;36977;-77
2022/10/23 10:02:31;;;;;;;11.00;6.18;;;15.20;99.90;;;;;;4965398;28;37148;-79
2022/10/23 10:04:58;;;;;;;12.23;5.85;;;15.20;99.90;;;;;;4977526;28;37764;-78
2022/10/23 10:07:27;;;;;;;11.63;6.28;;;15.30;99.90;;;;;;4975268;28;37249;-78
2022/10/23 10:09:55;;;;;;;8.95;6.30;;;15.30;99.90;;;;;;4968124;28;36995;-78
2022/10/23 10:12:48;;;;;;;10.63;6.32;;;15.40;99.90;;;;;;4967196;28;39435;-79
2022/10/23 10:15:49;;;;;;;10.30;5.47;;;15.50;99.90;;;;;;4978286;28;38665;-77
2022/10/23 10:18:35;;;;;;;8.10;5.03;;;15.60;99.90;;;;;;4983998;28;36961;-78
2022/10/23 10:21:13;;;;;;;10.50;6.20;;;15.70;99.90;;;;;;4957398;28;38580;-78
2022/10/23 10:23:42;;;;;;;10.95;5.38;;;15.80;99.90;;;;;;4969512;28;47344;-78
2022/10/23 10:26:36;;;;;;;11.82;5.20;;;15.80;99.90;;;;;;4973245;28;38678;-80
2022/10/23 10:29:59;;;;;;;10.73;5.43;;;15.80;99.90;;;;;;4981587;28;37350;-79
2022/10/23 10:32:50;;;;;;;12.63;5.88;;;15.90;99.90;;;;;;4912141;29;49240;-78
2022/10/23 10:35:36;;;;;;;7.72;5.32;;;16.00;99.90;;;;;;4912915;29;38039;-78
2022/10/23 10:38:31;;;;;;;9.30;4.32;;;16.00;99.90;;;;;;4963133;28;37522;-78
2022/10/23 10:41:20;;;;;;;8.88;5.18;;;16.20;99.90;;;;;;4956117;28;47319;-78
2022/10/23 10:44:09;;;;;;;7.63;4.18;;;16.30;99.90;;;;;;4957028;28;47109;-78
2022/10/23 10:46:58;;;;;;;7.28;3.97;;;16.40;99.90;;;;;;4926923;28;49363;-78
2022/10/23 10:49:35;;;;;;;8.73;4.05;;;16.60;99.90;;;;;;4985195;28;39333;-77
2022/10/23 10:52:33;;;;;;;8.32;4.30;;;16.60;99.90;;;;;;4978602;28;36282;-78
2022/10/23 10:55:16;;;;;;;7.97;4.15;;;16.70;99.90;;;;;;4977351;28;47094;-78
2022/10/23 10:58:15;;;;;;;11.07;3.83;;;16.70;99.90;;;;;;4984423;28;49190;-78
2022/10/23 11:00:43;;;;;;;10.05;4.00;;;16.80;99.90;;;;;;4971073;28;47235;-78
2022/10/23 11:03:32;;;;;;;9.43;4.15;;;16.70;99.90;;;;;;4965609;28;36151;-79
2022/10/23 11:06:01;;;;;;;6.15;3.65;;;16.80;99.90;;;;;;4978710;28;38824;-78
2022/10/23 11:08:34;;;;;;;8.90;4.15;;;16.80;99.90;;;;;;4981702;28;39214;-78
2022/10/23 11:11:04;;;;;;;5.95;3.55;;;17.00;99.90;;;;;;4968269;28;37549;-75
2022/10/23 11:13:35;;;;;;;6.82;3.70;;;17.10;99.90;;;;;;4976098;28;47111;-77
2022/10/23 11:16:18;;;;;;;10.77;3.85;;;17.20;99.90;;;;;;4971315;28;39792;-76
2022/10/23 11:19:03;;;;;;;6.03;3.63;;;17.20;99.90;;;;;;4997017;28;47400;-77
2022/10/23 11:21:35;;;;;;;10.02;3.88;;;17.30;99.90;;;;;;4984612;28;49250;-77
2022/10/23 11:24:23;;;;;;;9.52;3.33;;;17.40;99.90;;;;;;4961201;28;36735;-79
2022/10/23 11:26:52;;;;;;;7.60;3.75;;;17.40;99.90;;;;;;4975794;28;49024;-75
2022/10/23 11:29:39;;;;;;;5.80;3.20;;;17.50;99.90;;;;;;4968986;28;39843;-76
2022/10/23 11:32:47;;;;;;;9.85;3.70;;;17.40;99.90;;;;;;4959454;28;37526;-77
2022/10/23 11:35:30;;;;;;;15.40;4.55;;;17.40;99.90;;;;;;4985611;28;38274;-77
2022/10/23 11:38:24;;;;;;;8.00;3.58;;;17.40;99.90;;;;;;4954881;28;37654;-76
2022/10/23 11:41:01;;;;;;;5.38;3.10;;;17.40;99.90;;;;;;4959431;28;47325;-76
2022/10/23 11:43:46;;;;;;;4.78;3.60;;;17.50;99.90;;;;;;4968042;28;38139;-77
2022/10/23 11:46:24;;;;;;;12.13;3.92;;;17.60;99.90;;;;;;4974535;28;37246;-76
2022/10/23 11:48:52;;;;;;;5.93;3.00;;;17.70;99.90;;;;;;4994220;28;39242;-77
2022/10/23 11:51:35;;;;;;;8.20;3.58;;;17.70;99.90;;;;;;4980405;28;41083;-77
2022/10/23 11:54:16;;;;;;;10.73;3.40;;;17.80;99.90;;;;;;4975406;28;38711;-75
2022/10/23 11:57:07;;;;;;;9.90;3.85;;;17.90;99.90;;;;;;4954978;28;47219;-78
2022/10/23 11:59:49;;;;;;;10.55;4.38;;;18.00;99.90;;;;;;4974720;28;48417;-74
2022/10/23 12:02:26;;;;;;;8.68;3.58;;;18.10;99.90;;;;;;4975175;28;39087;-76
2022/10/23 12:04:54;;;;;;;7.13;3.38;;;18.10;99.90;;;;;;4970013;28;38265;-75
2022/10/23 12:07:28;;;;;;;6.55;3.63;;;18.20;99.90;;;;;;4983723;28;37353;-76
2022/10/23 12:10:01;;;;;;;7.05;2.53;;;18.20;99.90;;;;;;4977048;28;37824;-76
2022/10/23 12:12:33;;;;;;;7.25;3.13;;;18.20;99.90;;;;;;4973414;28;38987;-77
2022/10/23 12:15:10;;;;;;;5.82;3.00;;;18.30;99.90;;;;;;4959337;28;37294;-76
2022/10/23 12:17:41;;;;;;;7.95;2.95;;;18.40;99.90;;;;;;4959786;28;47272;-77
2022/10/23 12:20:07;;;;;;;6.07;2.88;;;18.50;99.90;;;;;;4960108;28;39107;-77
2022/10/23 12:23:29;;;;;;;4.43;2.60;;;18.60;99.90;;;;;;4983207;28;38586;-76
2022/10/23 12:26:01;;;;;;;9.73;2.53;;;18.60;99.90;;;;;;4881363;29;48432;-75
2022/10/23 12:28:36;;;;;;;9.05;2.97;;;18.60;99.90;;;;;;4880997;29;35968;-76
2022/10/23 12:31:17;;;;;;;5.57;2.90;;;18.60;99.90;;;;;;4928321;28;38872;-75
2022/10/23 12:34:26;;;;;;;4.90;2.80;;;18.70;99.90;;;;;;4951711;28;47512;-75
2022/10/23 12:37:28;;;;;;;9.57;3.22;;;18.80;99.90;;;;;;4971599;28;48287;-76
2022/10/23 12:39:55;;;;;;;10.75;3.35;;;18.80;99.90;;;;;;4925031;28;48263;-75
2022/10/23 12:42:24;;;;;;;8.35;3.17;;;18.80;99.90;;;;;;4971856;28;38497;-75
2022/10/23 12:45:18;;;;;;;7.45;2.97;;;18.90;99.90;;;;;;4955161;28;38870;-75
2022/10/23 12:47:47;;;;;;;5.57;2.90;;;18.90;99.90;;;;;;4974740;28;48886;-75
2022/10/23 12:50:24;;;;;;;7.35;2.60;;;19.00;99.90;;;;;;4955340;28;36164;-79
2022/10/23 12:52:55;;;;;;;10.25;2.88;;;19.00;99.90;;;;;;4965253;28;37604;-79
2022/10/23 12:55:24;;;;;;;7.78;3.30;;;19.00;99.90;;;;;;4960942;28;39437;-79
2022/10/23 12:57:52;;;;;;;6.00;3.25;;;19.10;99.90;;;;;;4955209;28;39141;-79
2022/10/23 13:00:21;;;;;;;8.88;3.20;;;19.20;99.90;;;;;;4940007;28;35649;-78
2022/10/23 13:03:02;;;;;;;7.90;3.13;;;19.20;99.90;;;;;;4980150;28;39040;-79
2022/10/23 13:05:31;;;;;;;8.10;3.13;;;19.20;99.90;;;;;;4958158;28;47010;-80
2022/10/23 13:07:59;;;;;;;6.63;3.05;;;19.20;99.90;;;;;;4973024;28;38424;-80
2022/10/23 13:10:25;;;;;;;8.65;3.30;;;19.30;99.90;;;;;;4955761;28;38361;-82
2022/10/23 13:12:56;;;;;;;9.95;3.03;;;19.30;99.90;;;;;;4976734;28;38962;-83
2022/10/23 13:15:22;;;;;;;8.18;2.72;;;19.40;99.90;;;;;;4970022;28;38676;-80
2022/10/23 13:17:54;;;;;;;7.95;3.05;;;19.40;99.90;;;;;;4980748;28;38785;-80
2022/10/23 13:20:27;;;;;;;7.50;3.13;;;19.30;99.90;;;;;;4978422;28;37949;-80
2022/10/23 13:23:26;;;;;;;8.35;3.15;;;19.40;99.90;;;;;;4958363;28;38828;-80
2022/10/23 13:26:18;;;;;;;5.80;2.97;;;19.40;99.90;;;;;;4952559;28;47148;-81
2022/10/23 13:28:45;;;;;;;8.68;2.88;;;19.40;99.90;;;;;;4952977;28;45895;-82